Archiv-/Tagesdaten

--Timestamp---	Temp	Chill	HIndex	Humid	Dewpt	 Wind 	HiWind	WindDir	Rain 	Barom	Solar	 ET  	 UV 
--------------	----	-----	------	-----	-----	------	------	-------	-----	-----	-----	-----	----
20091127 00:00	4.1	4.1	4.1	88	2.2	0	2	158	0.0	1014.2	0	0.000	0.0
20091127 00:05	3.9	3.9	3.9	88	2.1	2	5	158	0.0	1014.1	0	0.000	0.0
20091127 00:10	3.9	3.9	3.9	89	2.3	3	6	158	0.0	1014.1	0	0.000	0.0
20091127 00:15	3.9	3.9	3.9	89	2.3	3	5	158	0.0	1014.1	0	0.000	0.0
20091127 00:20	3.9	3.9	3.9	88	2.1	2	5	158	0.0	1014.0	0	0.000	0.0
20091127 00:25	3.8	3.8	3.8	88	2.0	0	0	-100000	0.0	1013.9	0	0.000	0.0
20091127 00:30	3.7	3.7	3.7	88	1.9	0	2	158	0.0	1013.8	0	0.000	0.0
20091127 00:35	3.7	3.7	3.7	89	2.0	2	5	158	0.0	1013.8	0	0.000	0.0
20091127 00:40	3.7	3.7	3.7	89	2.0	3	5	158	0.0	1013.7	0	0.000	0.0
20091127 00:45	3.7	3.7	3.7	89	2.0	3	6	158	0.0	1013.8	0	0.000	0.0
20091127 00:50	3.7	3.7	3.7	89	2.0	3	8	158	0.0	1013.7	0	0.000	0.0
20091127 00:55	3.6	3.6	3.6	89	2.0	3	6	158	0.0	1013.5	0	0.000	0.0
20091127 01:00	3.6	3.6	3.6	89	1.9	3	6	158	0.0	1013.7	0	0.000	0.0
20091127 01:05	3.6	3.6	3.6	90	2.1	2	6	158	0.0	1013.6	0	0.000	0.0
20091127 01:10	3.6	3.6	3.6	90	2.1	3	6	158	0.0	1013.6	0	0.000	0.0
20091127 01:15	3.6	3.6	3.6	90	2.1	3	6	158	0.0	1013.5	0	0.000	0.0
20091127 01:20	3.6	3.6	3.6	90	2.1	3	6	158	0.0	1013.4	0	0.000	0.0
20091127 01:25	3.5	3.5	3.5	90	2.0	2	6	158	0.0	1013.4	0	0.000	0.0
20091127 01:30	3.4	3.4	3.4	90	2.0	3	6	158	0.0	1013.4	0	0.000	0.0
20091127 01:35	3.4	3.4	3.4	90	1.9	3	6	158	0.0	1013.5	0	0.000	0.0
20091127 01:40	3.3	3.3	3.3	89	1.7	3	5	158	0.0	1013.5	0	0.000	0.0
20091127 01:45	3.3	3.3	3.3	89	1.6	3	6	158	0.0	1013.5	0	0.000	0.0
20091127 01:50	3.3	3.3	3.3	90	1.8	3	5	158	0.0	1013.4	0	0.000	0.0
20091127 01:55	3.3	3.3	3.3	90	1.8	3	6	158	0.0	1013.4	0	0.000	0.0
20091127 02:00	3.3	3.3	3.3	90	1.8	5	8	158	0.0	1013.4	0	0.000	0.0
20091127 02:05	3.3	3.3	3.3	90	1.9	2	3	158	0.0	1013.4	0	0.000	0.0
20091127 02:10	3.4	3.4	3.4	90	1.9	2	5	158	0.0	1013.4	0	0.000	0.0
20091127 02:15	3.4	3.4	3.4	90	2.0	2	3	158	0.0	1013.3	0	0.000	0.0
20091127 02:20	3.4	3.4	3.4	90	2.0	0	3	158	0.0	1013.3	0	0.000	0.0
20091127 02:25	3.5	3.5	3.5	90	2.0	2	5	158	0.0	1013.2	0	0.000	0.0
20091127 02:30	3.6	3.6	3.6	90	2.1	3	5	158	0.0	1013.2	0	0.000	0.0
20091127 02:35	3.7	3.7	3.7	90	2.2	0	2	158	0.0	1013.2	0	0.000	0.0
20091127 02:40	3.8	3.8	3.8	90	2.3	0	5	158	0.0	1013.1	0	0.000	0.0
20091127 02:45	3.9	3.9	3.9	90	2.5	2	5	158	0.0	1013.0	0	0.000	0.0
20091127 02:50	4.1	4.1	4.1	89	2.4	2	6	158	0.0	1013.0	0	0.000	0.0
20091127 02:55	4.1	4.1	4.1	89	2.4	5	8	158	0.0	1013.0	0	0.000	0.0
20091127 03:00	4.1	4.1	4.1	89	2.4	3	10	180	0.0	1012.9	0	0.000	0.0
20091127 03:05	4.1	4.1	4.1	89	2.4	2	5	202	0.0	1012.9	0	0.000	0.0
20091127 03:10	4.1	4.1	4.1	89	2.4	2	6	202	0.0	1012.9	0	0.000	0.0
20091127 03:15	4.2	4.2	4.2	89	2.6	2	8	135	0.0	1012.7	0	0.000	0.0
20091127 03:20	4.3	4.3	4.3	89	2.7	2	5	135	0.0	1012.6	0	0.000	0.0
20091127 03:25	4.4	4.4	4.4	89	2.8	2	6	135	0.0	1012.5	0	0.000	0.0
20091127 03:30	4.5	4.5	4.5	88	2.7	3	8	158	0.0	1012.3	0	0.000	0.0
20091127 03:35	4.7	4.7	4.7	88	2.9	3	5	158	0.0	1012.4	0	0.000	0.0
20091127 03:40	4.8	4.8	4.8	88	3.0	3	5	158	0.0	1012.4	0	0.000	0.0
20091127 03:45	5.0	5.0	5.0	87	3.0	3	8	158	0.0	1012.3	0	0.000	0.0
20091127 03:50	5.1	5.1	5.1	86	2.9	2	5	158	0.0	1012.3	0	0.000	0.0
20091127 03:55	5.2	5.2	5.2	86	3.1	3	5	158	0.0	1012.2	0	0.000	0.0
20091127 04:00	5.3	5.3	5.3	85	3.0	2	5	158	0.0	1012.0	0	0.000	0.0
20091127 04:05	5.3	5.3	5.3	85	3.0	2	5	158	0.0	1011.9	0	0.000	0.0
20091127 04:10	5.3	5.3	5.3	85	3.0	3	5	158	0.0	1012.0	0	0.000	0.0
20091127 04:15	5.3	5.3	5.3	85	3.0	3	6	158	0.0	1011.9	0	0.000	0.0
20091127 04:20	5.3	5.3	5.3	85	3.0	2	5	158	0.0	1011.9	0	0.000	0.0
20091127 04:25	5.3	5.3	5.3	85	3.0	2	5	158	0.0	1011.8	0	0.000	0.0
20091127 04:30	5.3	5.3	5.3	85	3.0	2	3	158	0.0	1011.7	0	0.000	0.0
20091127 04:35	5.3	5.3	5.3	85	3.0	3	6	158	0.0	1011.6	0	0.000	0.0
20091127 04:40	5.4	5.4	5.4	85	3.1	2	6	158	0.0	1011.6	0	0.000	0.0
20091127 04:45	5.4	5.4	5.4	85	3.1	3	5	158	0.0	1011.5	0	0.000	0.0
20091127 04:50	5.5	5.5	5.5	85	3.2	3	6	158	0.0	1011.4	0	0.000	0.0
20091127 04:55	5.6	5.6	5.6	84	3.1	5	8	158	0.0	1011.5	0	0.000	0.0
20091127 05:00	5.6	5.6	5.6	84	3.1	5	8	180	0.0	1011.4	0	0.000	0.0
20091127 05:05	5.7	5.7	5.7	84	3.2	5	10	158	0.0	1011.4	0	0.000	0.0
20091127 05:10	5.7	5.7	5.7	84	3.2	3	8	158	0.0	1011.3	0	0.000	0.0
20091127 05:15	5.7	5.7	5.7	84	3.2	2	5	158	0.0	1011.3	0	0.000	0.0
20091127 05:20	5.7	5.7	5.7	84	3.2	2	5	158	0.0	1011.2	0	0.000	0.0
20091127 05:25	5.7	5.7	5.7	84	3.2	2	5	158	0.0	1011.1	0	0.000	0.0
20091127 05:30	5.6	5.6	5.6	85	3.3	3	8	158	0.0	1011.2	0	0.000	0.0
20091127 05:35	5.6	5.6	5.6	85	3.3	3	6	202	0.0	1011.2	0	0.000	0.0
20091127 05:40	5.6	5.6	5.6	85	3.3	5	11	202	0.0	1011.1	0	0.000	0.0
20091127 05:45	5.6	4.3	5.6	85	3.3	6	11	158	0.0	1011.1	0	0.000	0.0
20091127 05:50	5.6	4.2	5.6	85	3.2	6	11	180	0.0	1011.1	0	0.000	0.0
20091127 05:55	5.6	5.6	5.6	85	3.2	5	11	180	0.0	1011.1	0	0.000	0.0
20091127 06:00	5.6	5.6	5.6	85	3.2	5	10	202	0.0	1011.2	0	0.025	0.0
20091127 06:05	5.6	5.6	5.6	85	3.2	5	10	202	0.0	1011.3	0	0.000	0.0
20091127 06:10	5.6	5.6	5.6	85	3.2	3	8	158	0.0	1011.2	0	0.000	0.0
20091127 06:15	5.6	5.6	5.6	84	3.1	5	8	158	0.0	1011.3	0	0.000	0.0
20091127 06:20	5.6	5.6	5.6	84	3.1	5	11	180	0.0	1011.2	0	0.000	0.0
20091127 06:25	5.6	5.6	5.6	84	3.1	5	8	180	0.0	1011.1	0	0.000	0.0
20091127 06:30	5.5	5.5	5.5	85	3.2	5	11	180	0.0	1011.2	0	0.000	0.0
20091127 06:35	5.4	5.4	5.4	85	3.1	5	10	180	0.0	1011.1	0	0.000	0.0
20091127 06:40	5.4	5.4	5.4	85	3.1	3	6	180	0.0	1011.2	0	0.000	0.0
20091127 06:45	5.4	5.4	5.4	85	3.1	5	8	202	0.0	1011.2	0	0.000	0.0
20091127 06:50	5.4	5.4	5.4	85	3.1	5	10	180	0.0	1011.2	0	0.000	0.0
20091127 06:55	5.4	5.4	5.4	85	3.1	3	8	202	0.0	1011.1	0	0.000	0.0
20091127 07:00	5.5	5.5	5.5	85	3.2	5	8	180	0.0	1011.0	0	0.025	0.0
20091127 07:05	5.5	5.5	5.5	85	3.2	5	11	180	0.0	1011.1	0	0.000	0.0
20091127 07:10	5.5	5.5	5.5	85	3.2	5	8	202	0.0	1011.1	0	0.000	0.0
20091127 07:15	5.5	5.5	5.5	85	3.2	3	10	202	0.0	1011.2	0	0.000	0.0
20091127 07:20	5.6	5.6	5.6	85	3.2	5	14	202	0.0	1011.1	0	0.000	0.0
20091127 07:25	5.6	5.6	5.6	85	3.3	5	8	158	0.0	1011.2	0	0.000	0.0
20091127 07:30	5.6	5.6	5.6	85	3.3	3	6	158	0.0	1011.1	0	0.000	0.0
20091127 07:35	5.6	5.6	5.6	85	3.2	3	8	158	0.0	1011.0	0	0.000	0.0
20091127 07:40	5.5	5.5	5.5	85	3.2	5	8	158	0.0	1011.0	0	0.000	0.0
20091127 07:45	5.4	5.4	5.4	85	3.1	3	8	202	0.0	1011.1	0	0.000	0.0
20091127 07:50	5.4	5.4	5.4	85	3.1	3	8	202	0.0	1011.0	0	0.000	0.0
20091127 07:55	5.4	5.4	5.4	85	3.1	3	8	180	0.0	1011.1	5	0.000	0.0
20091127 08:00	5.4	5.4	5.4	85	3.1	5	8	180	0.0	1011.1	8	0.000	0.0
20091127 08:05	5.4	5.4	5.4	85	3.1	5	10	202	0.0	1011.1	10	0.000	0.0
20091127 08:10	5.4	4.1	5.4	85	3.1	6	13	202	0.0	1011.3	12	0.000	0.0
20091127 08:15	5.4	3.6	5.4	85	3.1	8	16	202	0.0	1011.4	14	0.000	0.0
20091127 08:20	5.4	3.6	5.4	85	3.1	8	14	225	0.0	1011.4	15	0.000	0.0
20091127 08:25	5.4	3.7	5.4	85	3.1	8	18	225	0.0	1011.5	19	0.000	0.0
20091127 08:30	5.6	3.4	5.6	84	3.1	10	19	202	0.0	1011.5	23	0.000	0.0
20091127 08:35	5.6	3.9	5.6	84	3.1	8	16	202	0.0	1011.4	28	0.000	0.0
20091127 08:40	5.7	4.4	5.7	84	3.2	6	11	202	0.0	1011.4	32	0.000	0.0
20091127 08:45	5.7	3.9	5.7	84	3.2	8	16	202	0.0	1011.4	34	0.000	0.0
20091127 08:50	5.7	5.7	5.7	84	3.2	5	10	225	0.0	1011.4	37	0.000	0.0
20091127 08:55	5.7	4.4	5.7	84	3.2	6	11	202	0.0	1011.4	41	0.000	0.0
20091127 09:00	5.8	5.8	5.8	84	3.3	5	10	202	0.0	1011.4	47	0.025	0.0
20091127 09:05	5.9	5.9	5.9	83	3.2	5	10	202	0.0	1011.6	55	0.000	0.0
20091127 09:10	6.0	4.8	6.0	82	3.2	6	11	202	0.0	1011.5	60	0.000	0.0
20091127 09:15	6.2	5.0	6.2	81	3.2	6	11	225	0.0	1011.5	65	0.000	0.0
20091127 09:20	6.4	4.8	6.4	79	3.1	8	14	225	0.0	1011.4	69	0.000	0.0
20091127 09:25	6.6	5.0	6.6	78	3.1	8	13	202	0.0	1011.4	71	0.000	0.0
20091127 09:30	6.8	5.3	6.8	77	3.1	8	16	202	0.0	1011.4	73	0.000	0.0
20091127 09:35	7.0	5.5	7.0	76	3.1	8	16	225	0.0	1011.5	78	0.000	0.0
20091127 09:40	7.1	5.6	7.1	76	3.2	8	14	225	0.0	1011.5	80	0.000	0.0
20091127 09:45	7.2	6.2	7.2	76	3.3	6	11	225	0.0	1011.6	82	0.000	0.0
20091127 09:50	7.3	5.5	7.3	74	3.0	10	21	225	0.0	1011.6	80	0.000	0.0
20091127 09:55	7.4	6.4	7.4	75	3.3	6	14	225	0.0	1011.5	80	0.000	0.0
20091127 10:00	7.5	6.1	7.5	75	3.4	8	19	225	0.0	1011.4	83	0.051	0.0
20091127 10:05	7.6	5.8	7.6	73	3.0	10	26	225	0.0	1011.6	81	0.000	0.0
20091127 10:10	7.7	5.7	7.7	72	3.0	11	21	225	0.0	1011.6	82	0.000	0.2
20091127 10:15	7.8	5.6	7.8	70	2.7	13	21	225	0.0	1011.6	86	0.000	0.5
20091127 10:20	7.9	6.0	7.9	71	3.0	11	16	225	0.0	1011.6	100	0.000	0.5
20091127 10:25	7.9	6.0	7.9	71	3.0	11	19	225	0.0	1011.6	118	0.000	0.6
20091127 10:30	8.1	5.8	8.1	70	2.9	13	23	248	0.0	1011.5	123	0.000	0.6
20091127 10:35	8.1	6.8	8.1	71	3.2	8	16	248	0.0	1011.6	125	0.000	0.6
20091127 10:40	8.2	6.5	8.2	70	3.0	10	16	225	0.0	1011.5	130	0.000	0.6
20091127 10:45	8.2	6.6	8.2	70	3.1	10	21	225	0.0	1011.4	135	0.000	0.6
20091127 10:50	8.3	6.4	8.3	70	3.2	11	19	225	0.0	1011.6	157	0.000	0.7
20091127 10:55	8.5	6.4	8.5	69	3.1	13	21	248	0.0	1011.6	214	0.000	0.7
20091127 11:00	8.7	6.6	8.7	69	3.3	13	21	248	0.0	1011.5	230	0.102	0.7
20091127 11:05	8.8	7.3	8.8	69	3.5	10	18	248	0.0	1011.7	265	0.000	0.8
20091127 11:10	9.1	7.4	9.1	68	3.5	11	21	248	0.0	1011.7	253	0.000	0.8
20091127 11:15	9.2	7.3	9.2	67	3.4	13	26	248	0.0	1011.4	268	0.000	0.8
20091127 11:20	9.3	7.4	9.3	66	3.3	13	23	225	0.0	1011.3	279	0.000	0.9
20091127 11:25	9.6	7.2	9.6	65	3.3	16	32	248	0.0	1011.3	351	0.000	1.0
20091127 11:30	9.8	7.8	9.8	63	3.1	14	26	248	0.0	1011.3	326	0.000	0.9
20091127 11:35	9.9	8.1	9.9	63	3.2	13	23	248	0.0	1011.2	246	0.000	0.9
20091127 11:40	9.8	7.8	9.8	62	2.9	14	26	248	0.0	1011.1	197	0.000	0.8
20091127 11:45	9.8	7.5	9.8	62	2.8	16	26	248	0.0	1011.0	193	0.000	0.8
20091127 11:50	9.8	8.2	9.8	64	3.3	11	21	248	0.0	1011.0	185	0.000	0.8
20091127 11:55	9.8	8.5	9.8	64	3.3	10	23	248	0.0	1011.0	181	0.000	0.8
20091127 12:00	9.9	8.1	9.9	63	3.2	13	24	248	0.0	1010.9	196	0.152	0.8
20091127 12:05	9.9	8.4	9.9	62	3.0	11	21	248	0.0	1011.0	206	0.000	0.8
20091127 12:10	10.1	10.1	10.1	62	3.2	13	21	248	0.0	1010.8	200	0.000	0.9
20091127 12:15	10.2	10.2	10.2	61	3.0	11	21	248	0.0	1010.8	216	0.000	0.9
20091127 12:20	10.5	10.5	10.5	61	3.3	10	19	248	0.0	1010.8	327	0.000	1.0
20091127 12:25	10.8	10.8	10.8	60	3.4	11	16	225	0.0	1010.7	334	0.000	1.0
20091127 12:30	11.1	11.1	11.1	60	3.6	8	16	270	0.0	1010.6	348	0.000	1.0
20091127 12:35	11.3	11.3	11.3	58	3.4	11	19	248	0.0	1010.7	313	0.000	0.9
20091127 12:40	11.3	11.3	11.3	59	3.6	13	19	270	0.0	1010.8	415	0.000	0.9
20091127 12:45	11.6	11.6	11.6	59	3.8	10	18	292	0.0	1010.7	415	0.000	0.9
20091127 12:50	11.7	11.7	11.7	58	3.7	14	21	292	0.0	1010.7	237	0.000	0.7
20091127 12:55	11.7	11.7	11.7	57	3.4	13	23	270	0.0	1010.7	389	0.000	0.7
20091127 13:00	11.4	11.4	11.4	59	3.7	10	16	270	0.0	1010.7	128	0.178	0.5
20091127 13:05	11.2	11.2	11.2	58	3.2	10	18	270	0.0	1010.5	132	0.000	0.5
20091127 13:10	11.0	11.0	11.0	59	3.3	6	11	225	0.0	1010.6	132	0.000	0.5
20091127 13:15	10.9	10.9	10.9	59	3.2	8	16	270	0.0	1010.6	111	0.000	0.3
20091127 13:20	10.8	10.8	10.8	59	3.1	11	19	270	0.0	1010.6	94	0.000	0.0
20091127 13:25	10.7	10.7	10.7	58	2.8	11	23	270	0.0	1010.7	95	0.000	0.0
20091127 13:30	10.7	10.7	10.7	58	2.7	11	24	270	0.0	1010.6	106	0.000	0.0
20091127 13:35	10.6	10.6	10.6	57	2.4	14	26	270	0.0	1010.4	104	0.000	0.0
20091127 13:40	10.6	10.6	10.6	56	2.2	14	26	248	0.0	1010.5	90	0.000	0.0
20091127 13:45	10.6	10.6	10.6	55	1.9	13	21	248	0.0	1010.4	92	0.000	0.0
20091127 13:50	10.6	10.6	10.6	56	2.1	11	21	270	0.0	1010.5	84	0.000	0.0
20091127 13:55	10.6	10.6	10.6	57	2.4	13	24	248	0.0	1010.6	78	0.000	0.0
20091127 14:00	10.5	10.5	10.5	56	2.1	14	24	270	0.0	1010.6	64	0.102	0.0
20091127 14:05	10.4	10.4	10.4	55	1.8	21	39	270	0.0	1010.4	72	0.000	0.0
20091127 14:10	10.4	10.4	10.4	55	1.8	16	26	270	0.0	1010.4	77	0.000	0.0
20091127 14:15	10.3	10.3	10.3	56	1.9	18	29	270	0.0	1010.5	63	0.000	0.0
20091127 14:20	10.3	10.3	10.3	56	1.9	14	21	270	0.0	1010.5	70	0.000	0.0
20091127 14:25	10.2	10.2	10.2	57	2.1	11	21	270	0.0	1010.4	82	0.000	0.0
20091127 14:30	10.2	10.2	10.2	58	2.3	8	19	270	0.0	1010.5	71	0.000	0.0
20091127 14:35	10.1	10.1	10.1	58	2.2	8	18	270	0.0	1010.4	84	0.000	0.0
20091127 14:40	10.1	10.1	10.1	58	2.2	8	16	270	0.0	1010.4	93	0.000	0.0
20091127 14:45	10.1	10.1	10.1	58	2.2	8	16	270	0.0	1010.4	91	0.000	0.0
20091127 14:50	10.1	10.1	10.1	58	2.2	11	21	270	0.0	1010.3	77	0.000	0.0
20091127 14:55	10.0	10.0	10.0	59	2.4	11	24	270	0.0	1010.3	70	0.000	0.0
20091127 15:00	10.0	10.0	10.0	59	2.4	14	27	270	0.0	1010.3	64	0.102	0.0
20091127 15:05	9.9	8.9	9.9	59	2.3	8	16	270	0.0	1010.1	60	0.000	0.0
20091127 15:10	9.8	8.8	9.8	60	2.4	8	16	248	0.0	1010.1	50	0.000	0.0
20091127 15:15	9.8	8.0	9.8	59	2.2	13	23	248	0.0	1010.1	41	0.000	0.0
20091127 15:20	9.8	7.7	9.8	60	2.4	14	23	248	0.0	1010.2	39	0.000	0.0
20091127 15:25	9.8	7.3	9.8	60	2.4	18	27	248	0.0	1010.2	40	0.000	0.0
20091127 15:30	9.7	7.4	9.7	61	2.5	16	27	270	0.0	1010.2	30	0.000	0.0
20091127 15:35	9.6	7.5	9.6	61	2.5	14	27	270	0.0	1010.2	28	0.000	0.0
20091127 15:40	9.6	7.4	9.6	62	2.6	14	27	270	0.0	1010.3	25	0.000	0.0
20091127 15:45	9.4	7.1	9.4	62	2.5	16	32	270	0.0	1010.2	16	0.000	0.0
20091127 15:50	9.3	7.2	9.3	62	2.4	14	31	248	0.0	1010.5	10	0.000	0.0
20091127 15:55	9.3	7.4	9.3	63	2.7	13	21	270	0.0	1010.5	7	0.000	0.0
20091127 16:00	9.2	7.8	9.2	64	2.8	10	18	270	0.0	1010.6	5	0.076	0.0
20091127 16:05	9.2	7.2	9.2	64	2.7	13	24	270	0.0	1010.6	5	0.000	0.0
20091127 16:10	9.2	7.0	9.2	64	2.7	14	24	270	0.0	1010.5	1	0.000	0.0
20091127 16:15	9.1	6.5	9.1	64	2.7	18	29	270	0.0	1010.4	0	0.000	0.0
20091127 16:20	9.1	6.6	9.1	64	2.6	16	26	248	0.0	1010.5	0	0.000	0.0
20091127 16:25	8.9	6.9	8.9	65	2.7	13	27	270	0.0	1010.4	0	0.000	0.0
20091127 16:30	8.8	6.8	8.8	66	2.8	13	21	270	0.0	1010.6	0	0.000	0.0
20091127 16:35	8.8	7.0	8.8	67	3.0	11	21	270	0.0	1010.7	0	0.000	0.0
20091127 16:40	8.7	6.6	8.7	67	2.9	13	26	248	0.0	1010.7	0	0.000	0.0
20091127 16:45	8.7	6.8	8.7	67	2.9	11	21	270	0.0	1010.7	0	0.000	0.0
20091127 16:50	8.7	6.6	8.7	68	3.1	13	21	270	0.0	1010.7	0	0.000	0.0
20091127 16:55	8.6	6.8	8.6	68	3.0	11	21	270	0.0	1010.7	0	0.000	0.0
20091127 17:00	8.6	6.7	8.6	69	3.2	11	21	270	0.0	1011.0	0	0.051	0.0
20091127 17:05	8.6	7.0	8.6	69	3.2	10	19	270	0.0	1011.0	0	0.000	0.0
20091127 17:10	8.5	6.9	8.5	69	3.1	10	21	270	0.0	1011.1	0	0.000	0.0
20091127 17:15	8.4	7.6	8.4	69	3.1	6	14	270	0.0	1011.1	0	0.000	0.0
20091127 17:20	8.4	7.5	8.4	70	3.2	6	13	270	0.0	1011.1	0	0.000	0.0
20091127 17:25	8.3	6.7	8.3	69	3.0	10	18	248	0.0	1011.1	0	0.000	0.0
20091127 17:30	8.4	6.5	8.4	70	3.2	11	26	248	0.0	1011.1	0	0.000	0.0
20091127 17:35	8.3	6.7	8.3	70	3.2	10	16	248	0.0	1011.2	0	0.000	0.0
20091127 17:40	8.3	7.0	8.3	70	3.1	8	14	248	0.0	1011.2	0	0.000	0.0
20091127 17:45	8.2	6.6	8.2	70	3.1	10	16	248	0.0	1011.2	0	0.000	0.0
20091127 17:50	8.3	6.7	8.3	70	3.1	10	19	248	0.0	1011.2	0	0.000	0.0
20091127 17:55	8.3	7.4	8.3	70	3.1	6	14	248	0.0	1011.1	0	0.000	0.0
20091127 18:00	8.3	6.2	8.3	69	3.0	13	26	248	0.0	1011.1	0	0.051	0.0
20091127 18:05	8.4	6.5	8.4	69	3.0	11	18	248	0.0	1011.2	0	0.000	0.0
20091127 18:10	8.4	6.2	8.4	69	3.0	13	27	248	0.0	1011.2	0	0.000	0.0
20091127 18:15	8.3	6.2	8.3	70	3.2	13	23	248	0.0	1011.2	0	0.000	0.0
20091127 18:20	8.3	5.9	8.3	69	3.0	14	27	248	0.0	1011.3	0	0.000	0.0
20091127 18:25	8.3	6.4	8.3	70	3.1	11	19	248	0.0	1011.2	0	0.000	0.0
20091127 18:30	8.3	6.4	8.3	70	3.1	11	19	248	0.0	1011.2	0	0.000	0.0
20091127 18:35	8.2	6.3	8.2	71	3.3	11	21	270	0.0	1011.3	0	0.000	0.0
20091127 18:40	8.2	6.0	8.2	71	3.3	13	23	248	0.0	1011.3	0	0.000	0.0
20091127 18:45	8.2	5.6	8.2	71	3.3	16	31	248	0.0	1011.3	0	0.000	0.0
20091127 18:50	8.1	6.8	8.1	72	3.4	8	19	248	0.0	1011.4	0	0.000	0.0
20091127 18:55	8.0	5.8	8.0	73	3.5	13	21	248	0.0	1011.5	0	0.000	0.0
20091127 19:00	7.8	5.6	7.8	74	3.5	13	26	248	0.0	1011.6	0	0.051	0.0
20091127 19:05	7.7	5.7	7.7	75	3.6	11	21	248	0.0	1011.7	0	0.000	0.0
20091127 19:10	7.7	5.4	7.7	75	3.5	13	23	248	0.0	1011.7	0	0.000	0.0
20091127 19:15	7.7	5.6	7.7	75	3.5	11	23	270	0.0	1011.7	0	0.000	0.0
20091127 19:20	7.6	5.6	7.6	76	3.7	11	19	248	0.0	1011.8	0	0.000	0.0
20091127 19:25	7.6	6.1	7.6	77	3.8	8	16	270	0.0	1011.8	0	0.000	0.0
20091127 19:30	7.4	5.7	7.4	79	4.0	10	19	270	0.0	1012.1	0	0.000	0.0
20091127 19:35	7.2	5.4	7.2	79	3.8	10	21	270	0.0	1012.0	0	0.000	0.0
20091127 19:40	7.1	4.4	7.1	79	3.7	14	27	270	0.0	1012.1	0	0.000	0.0
20091127 19:45	6.9	3.6	6.9	80	3.7	19	26	270	0.2	1012.2	0	0.000	0.0
20091127 19:50	6.8	3.8	6.8	81	3.7	16	29	270	0.0	1012.3	0	0.000	0.0
20091127 19:55	6.6	4.7	6.6	83	3.9	10	21	270	0.2	1012.2	0	0.000	0.0
20091127 20:00	6.4	4.8	6.4	84	3.9	8	14	248	0.0	1012.3	0	0.025	0.0
20091127 20:05	6.3	4.3	6.3	85	4.0	10	19	248	0.2	1012.4	0	0.000	0.0
20091127 20:10	6.3	3.3	6.3	84	3.8	16	29	248	0.0	1012.4	0	0.000	0.0
20091127 20:15	6.4	3.6	6.4	83	3.7	14	29	248	0.2	1012.0	0	0.000	0.0
20091127 20:20	6.4	4.4	6.4	84	3.9	10	19	225	0.0	1012.0	0	0.000	0.0
20091127 20:25	6.3	4.3	6.3	84	3.8	10	21	248	0.0	1012.2	0	0.000	0.0
20091127 20:30	6.3	4.0	6.3	84	3.8	11	19	225	0.0	1012.2	0	0.000	0.0
20091127 20:35	6.3	4.0	6.3	84	3.8	11	19	248	0.0	1012.3	0	0.000	0.0
20091127 20:40	6.3	4.3	6.3	84	3.8	10	18	248	0.0	1012.4	0	0.000	0.0
20091127 20:45	6.3	4.6	6.3	85	3.9	8	18	225	0.0	1012.4	0	0.000	0.0
20091127 20:50	6.2	4.6	6.2	85	3.9	8	16	248	0.0	1012.5	0	0.000	0.0
20091127 20:55	6.3	3.7	6.3	89	4.6	13	23	248	0.0	1012.5	0	0.000	0.0
20091127 21:00	6.3	3.7	6.3	85	3.9	13	21	248	0.0	1012.5	0	0.025	0.0
20091127 21:05	6.3	4.6	6.3	85	3.9	8	16	225	0.0	1012.3	0	0.000	0.0
20091127 21:10	6.2	4.6	6.2	85	3.9	8	18	225	0.0	1012.3	0	0.000	0.0
20091127 21:15	6.2	4.5	6.2	86	4.0	8	14	248	0.0	1012.4	0	0.000	0.0
20091127 21:20	6.2	4.5	6.2	86	4.0	8	16	225	0.0	1012.4	0	0.000	0.0
20091127 21:25	6.2	4.5	6.2	86	4.0	8	21	225	0.0	1012.5	0	0.000	0.0
20091127 21:30	6.2	4.5	6.2	86	4.0	8	23	225	0.0	1012.5	0	0.000	0.0
20091127 21:35	6.2	4.5	6.2	86	4.0	8	14	225	0.0	1012.4	0	0.000	0.0
20091127 21:40	6.1	6.1	6.1	86	3.9	3	10	225	0.0	1012.5	0	0.000	0.0
20091127 21:45	6.1	4.8	6.1	86	3.9	6	11	225	0.0	1012.5	0	0.000	0.0
20091127 21:50	6.1	6.1	6.1	86	3.9	5	10	225	0.0	1012.5	0	0.000	0.0
20091127 21:55	6.0	4.8	6.0	86	3.8	6	13	270	0.0	1012.4	0	0.000	0.0
20091127 22:00	5.9	5.9	5.9	85	3.6	5	11	270	0.0	1012.5	0	0.025	0.0
20091127 22:05	5.8	5.8	5.8	85	3.5	3	6	270	0.0	1012.4	0	0.000	0.0
20091127 22:10	5.7	5.7	5.7	86	3.6	3	8	248	0.0	1012.4	0	0.000	0.0
20091127 22:15	5.6	5.6	5.6	86	3.5	5	14	248	0.0	1012.5	0	0.000	0.0
20091127 22:20	5.6	4.2	5.6	86	3.4	6	11	248	0.0	1012.5	0	0.000	0.0
20091127 22:25	5.6	5.6	5.6	86	3.4	5	11	248	0.0	1012.4	0	0.000	0.0
20091127 22:30	5.7	5.7	5.7	86	3.5	5	11	225	0.0	1012.4	0	0.000	0.0
20091127 22:35	5.7	5.7	5.7	86	3.5	3	10	270	0.0	1012.5	0	0.000	0.0
20091127 22:40	5.6	5.6	5.6	86	3.5	5	8	270	0.0	1012.5	0	0.000	0.0
20091127 22:45	5.6	5.6	5.6	86	3.4	5	8	270	0.0	1012.5	0	0.000	0.0
20091127 22:50	5.5	5.5	5.5	86	3.3	5	14	225	0.0	1012.5	0	0.000	0.0
20091127 22:55	5.4	5.4	5.4	86	3.2	3	6	225	0.0	1012.5	0	0.000	0.0
20091127 23:00	5.3	5.3	5.3	86	3.2	2	5	225	0.0	1012.6	0	0.000	0.0
20091127 23:05	5.2	5.2	5.2	87	3.2	2	6	225	0.0	1012.6	0	0.000	0.0
20091127 23:10	5.1	5.1	5.1	87	3.1	5	8	225	0.0	1012.6	0	0.000	0.0
20091127 23:15	5.1	5.1	5.1	87	3.1	5	10	225	0.0	1012.6	0	0.000	0.0
20091127 23:20	5.1	5.1	5.1	87	3.1	5	8	225	0.0	1012.6	0	0.000	0.0
20091127 23:25	5.1	5.1	5.1	87	3.1	5	10	202	0.0	1012.6	0	0.000	0.0
20091127 23:30	5.0	3.6	5.0	87	3.0	6	11	202	0.0	1012.6	0	0.000	0.0
20091127 23:35	4.9	3.5	4.9	87	2.9	6	11	202	0.0	1012.6	0	0.000	0.0
20091127 23:40	4.9	3.5	4.9	87	2.9	6	11	202	0.0	1012.6	0	0.000	0.0
20091127 23:45	4.8	4.8	4.8	87	2.9	5	8	180	0.0	1012.6	0	0.000	0.0
20091127 23:50	4.8	4.8	4.8	86	2.6	5	10	225	0.0	1012.5	0	0.000	0.0
20091127 23:55	4.7	3.3	4.7	86	2.6	6	10	225	0.0	1012.6	0	0.000	0.0



Please note the license to use and transfer of this data:
http://creativecommons.org/licenses/by-nc-sa/3.0/deed.en

Bitte beachten sie die Lizenz zur Verwertung und Weitergabe der Daten:
http://creativecommons.org/licenses/by-nc-sa/3.0/deed.de

zurück zur Übersicht der Archivdaten (Monats und Tagesdaten)

Cookies helfen bei der Bereitstellung von Inhalten. Durch die Nutzung dieser Seiten erklärst du dich damit einverstanden, dass Cookies auf deinem Rechner gespeichert werden. Weitere Information